Weather at Ministro Victor Konder International Airport

Public forecast

Using degrees Celsius for public forecast. Weather courtesy of forecast.io.

Current aviation weather report (METAR) for Ministro Victor Konder International Airport

Retrieved 2020/09/27 02:45 UTC (2 hours ago):

SBNF 270245Z 30002KT 9999 BKN013 20/18 Q1011

Aviation forecast (TAF) for Ministro Victor Konder International Airport

Retrieved 2020-09-27 00:00 UTC (4 hours ago):

TAF SBNF 262100Z 2700/2724 03006KT 9999 SCT010 TN14/2708Z TX25/2717Z BECMG 2704/2706 36012KT 4000 BR BKN005 BECMG 2711/2713 07012KT 9999 NSW BKN020 PROB30 2716/2718 34010KT 5000 TSRA BKN015 FEW020CB BECMG 2721/2723 03005KT 9999 NSW SCT010 RMK PEO